North Platte, Nebraska
Current Conditions -  °F | °C
As of 4:53 PM on Monday 24 Nov 2014 (Local Time) from KLBF Reporting Station
Clear Clear  
Wind Chill: 32°   Ceiling: Unl
Heat Index: 39°   Visibility: 10mi
Dew Point: 22°   Wind: 12mph
Humidity: 50%   Direction: 330°NNW
Pressure: 29.99"   Gusts: NA
Location:  41.14°N, 100.76°W
Report Text: KLBF 242253Z AUTO 33010KT 10SM CLR 04/M06 A2999 RMK AO2 PK WND 34028/2210 SLP174 T00391056 $
Loading
Personal Weather Stations






























Interactive Weather Map New forecast layout! Learn more

10-Day Weather Forecast

Advertisements
Track Severe Weather on mobile